createdAt,value
2023-04-07T00:01:24.083Z,32.93
2023-04-07T00:03:54.585Z,32.95
2023-04-07T00:06:25.203Z,32.95
2023-04-07T00:08:55.713Z,32.95
2023-04-07T00:11:25.954Z,32.94
2023-04-07T00:13:56.467Z,32.95
2023-04-07T00:16:27.423Z,32.95
2023-04-07T00:19:06.650Z,32.95
2023-04-07T00:21:42.094Z,32.94
2023-04-07T00:24:14.429Z,32.94
2023-04-07T00:27:13.938Z,32.93
2023-04-07T00:29:46.238Z,32.94
2023-04-07T00:32:16.631Z,32.95
2023-04-07T00:34:46.968Z,32.95
2023-04-07T00:37:17.209Z,32.95
2023-04-07T00:39:49.166Z,32.98
2023-04-07T00:42:19.520Z,32.99
2023-04-07T00:44:49.967Z,32.99
2023-04-07T00:47:20.416Z,32.99
2023-04-07T00:49:50.975Z,33.00
2023-04-07T00:52:29.681Z,33.00
2023-04-07T00:55:02.048Z,33.02
2023-04-07T00:57:32.424Z,33.02
2023-04-07T01:00:02.994Z,33.00
2023-04-07T01:02:44.839Z,33.03
2023-04-07T01:05:20.095Z,33.02
2023-04-07T01:08:03.776Z,33.02
2023-04-07T01:10:55.795Z,33.04
2023-04-07T01:13:27.736Z,33.03
2023-04-07T01:16:12.358Z,33.04
2023-04-07T01:18:51.165Z,33.03
2023-04-07T01:21:22.369Z,33.05
2023-04-07T01:24:10.438Z,33.04
2023-04-07T01:26:42.015Z,33.04
2023-04-07T01:29:39.861Z,33.02
2023-04-07T01:32:14.314Z,33.02
2023-04-07T01:34:45.118Z,33.07
2023-04-07T01:37:16.491Z,33.04
2023-04-07T01:39:47.298Z,33.03
2023-04-07T01:42:19.503Z,33.03
2023-04-07T01:44:50.947Z,33.04
2023-04-07T01:47:22.063Z,33.03
2023-04-07T01:49:53.959Z,33.06
2023-04-07T01:52:24.820Z,33.06
2023-04-07T01:54:57.665Z,33.07
2023-04-07T01:57:29.372Z,33.08
2023-04-07T02:00:04.834Z,33.05
2023-04-07T02:02:49.339Z,33.08
2023-04-07T02:05:23.577Z,33.09
2023-04-07T02:08:02.370Z,33.08
2023-04-07T02:10:37.972Z,33.09
2023-04-07T02:13:11.370Z,33.08
2023-04-07T02:15:43.967Z,33.09
2023-04-07T02:18:17.377Z,33.09
2023-04-07T02:20:48.749Z,33.09
2023-04-07T02:23:19.748Z,33.08
2023-04-07T02:25:49.890Z,33.08
2023-04-07T02:28:20.245Z,33.03
2023-04-07T02:30:50.410Z,33.05
2023-04-07T02:33:20.529Z,33.06
2023-04-07T02:35:50.908Z,33.05
2023-04-07T02:38:20.996Z,33.06
2023-04-07T02:40:51.093Z,33.07
2023-04-07T02:43:23.156Z,33.05
2023-04-07T02:45:54.749Z,33.07
2023-04-07T02:48:26.534Z,33.07
2023-04-07T02:50:56.989Z,33.07
2023-04-07T02:53:27.268Z,33.08
2023-04-07T02:55:57.618Z,33.12
2023-04-07T02:58:27.951Z,33.09
2023-04-07T03:00:58.091Z,33.09
2023-04-07T03:03:31.873Z,33.09
2023-04-07T03:06:14.025Z,33.10
2023-04-07T03:09:04.199Z,33.09
2023-04-07T03:11:34.413Z,33.08
2023-04-07T03:14:04.465Z,33.08
2023-04-07T03:16:35.890Z,33.09
2023-04-07T03:19:14.960Z,33.08
2023-04-07T03:21:53.801Z,33.07
2023-04-07T03:24:24.036Z,33.07
2023-04-07T03:26:54.460Z,33.08
2023-04-07T03:29:38.708Z,33.08
2023-04-07T03:32:11.391Z,33.09
2023-04-07T03:34:41.669Z,33.08
2023-04-07T03:37:12.001Z,33.12
2023-04-07T03:39:43.434Z,33.09
2023-04-07T03:42:36.198Z,33.08
2023-04-07T03:45:10.136Z,33.09
2023-04-07T03:47:45.186Z,33.09
2023-04-07T03:50:15.759Z,33.08
2023-04-07T03:53:11.877Z,33.05
2023-04-07T03:55:42.319Z,33.04
2023-04-07T03:58:21.864Z,33.05
2023-04-07T04:00:52.639Z,33.03
2023-04-07T04:03:23.092Z,33.02
2023-04-07T04:06:08.169Z,33.01
2023-04-07T04:08:38.362Z,33.00
2023-04-07T04:11:09.001Z,32.99
2023-04-07T04:13:47.228Z,32.99
2023-04-07T04:16:17.852Z,33.00
2023-04-07T04:18:50.155Z,32.97
2023-04-07T04:21:20.950Z,32.98
2023-04-07T04:23:51.382Z,32.97
2023-04-07T04:26:21.775Z,32.97
2023-04-07T04:28:51.946Z,32.93
2023-04-07T04:31:24.151Z,32.97
2023-04-07T04:33:55.072Z,32.95
2023-04-07T04:36:27.214Z,32.94
2023-04-07T04:39:02.073Z,32.95
2023-04-07T04:41:32.832Z,32.97
2023-04-07T04:44:03.911Z,32.95
2023-04-07T04:46:35.026Z,32.93
2023-04-07T04:49:05.550Z,32.92
2023-04-07T04:51:37.398Z,32.93
2023-04-07T04:54:15.515Z,32.94
2023-04-07T04:56:46.265Z,32.93
2023-04-07T04:59:16.473Z,32.93
2023-04-07T05:01:57.056Z,32.93
2023-04-07T05:04:27.473Z,32.91
2023-04-07T05:07:04.928Z,32.93
2023-04-07T05:09:35.744Z,32.91
2023-04-07T05:12:06.213Z,32.91
2023-04-07T05:14:41.803Z,32.88
2023-04-07T05:17:12.452Z,32.88
2023-04-07T05:19:42.821Z,32.87
2023-04-07T05:22:25.859Z,32.88
2023-04-07T05:24:56.064Z,32.87
2023-04-07T05:27:26.356Z,32.87
2023-04-07T05:30:01.385Z,32.85
2023-04-07T05:32:35.777Z,32.85
2023-04-07T05:35:13.018Z,32.87
2023-04-07T05:37:51.432Z,32.86
2023-04-07T05:40:21.833Z,32.86
2023-04-07T05:42:53.224Z,32.84
2023-04-07T05:45:24.050Z,32.84
2023-04-07T05:47:54.342Z,32.83
2023-04-07T05:50:30.511Z,32.84
2023-04-07T05:53:04.177Z,32.84
2023-04-07T05:55:34.765Z,32.83
2023-04-07T05:58:05.963Z,32.84
2023-04-07T06:00:36.914Z,32.83
2023-04-07T06:03:15.013Z,32.86
2023-04-07T06:05:58.810Z,32.85
2023-04-07T06:08:29.681Z,32.85
2023-04-07T06:10:59.941Z,32.86
2023-04-07T06:13:30.316Z,32.88
2023-04-07T06:16:00.592Z,32.87
2023-04-07T06:18:30.781Z,32.86
2023-04-07T06:21:02.310Z,32.86
2023-04-07T06:23:32.534Z,32.86
2023-04-07T06:26:02.771Z,32.87
2023-04-07T06:28:33.194Z,32.89
2023-04-07T06:31:03.548Z,32.89
2023-04-07T06:33:33.948Z,32.91
2023-04-07T06:36:04.510Z,32.90
2023-04-07T06:38:35.092Z,32.90
2023-04-07T06:41:05.513Z,32.92
2023-04-07T06:43:36.021Z,32.93
2023-04-07T06:46:07.745Z,32.92
2023-04-07T06:48:38.086Z,32.93
2023-04-07T06:51:08.242Z,32.93
2023-04-07T06:53:38.878Z,32.96
2023-04-07T06:56:14.291Z,32.95
2023-04-07T06:58:44.556Z,32.99
2023-04-07T07:01:14.626Z,32.99
2023-04-07T07:03:44.928Z,32.99
2023-04-07T07:06:16.099Z,33.00
2023-04-07T07:08:45.871Z,33.01
2023-04-07T07:11:16.037Z,33.02
2023-04-07T07:13:47.793Z,33.03
2023-04-07T07:16:18.433Z,32.99
2023-04-07T07:18:48.634Z,33.04
2023-04-07T07:21:19.688Z,33.05
2023-04-07T07:23:49.893Z,33.02
2023-04-07T07:26:20.373Z,33.02
2023-04-07T07:28:50.693Z,33.04
2023-04-07T07:31:21.110Z,33.03
2023-04-07T07:33:53.811Z,33.03
2023-04-07T07:36:24.067Z,33.04
2023-04-07T07:38:54.508Z,33.04
2023-04-07T07:41:24.705Z,33.04
2023-04-07T07:43:55.347Z,33.06
2023-04-07T07:46:28.257Z,33.04
2023-04-07T07:48:58.631Z,33.07
2023-04-07T07:51:30.464Z,33.07
2023-04-07T07:54:00.718Z,33.08
2023-04-07T07:56:31.199Z,33.08
2023-04-07T07:59:01.577Z,33.10
2023-04-07T08:01:31.853Z,33.08
2023-04-07T08:04:02.038Z,33.08
2023-04-07T08:06:33.813Z,33.08
2023-04-07T08:09:04.024Z,33.08
2023-04-07T08:11:34.222Z,33.07
2023-04-07T08:14:04.340Z,33.08
2023-04-07T08:16:34.536Z,33.10
2023-04-07T08:19:04.806Z,33.09
2023-04-07T08:21:35.183Z,33.08
2023-04-07T08:24:05.396Z,33.08
2023-04-07T08:26:36.141Z,33.07
2023-04-07T08:29:06.374Z,33.09
2023-04-07T08:31:36.852Z,33.09
2023-04-07T08:34:06.998Z,33.09
2023-04-07T08:36:37.245Z,33.12
2023-04-07T08:39:08.063Z,33.10
2023-04-07T08:41:43.786Z,33.09
2023-04-07T08:44:15.685Z,33.12
2023-04-07T08:46:47.264Z,33.13
2023-04-07T08:49:20.397Z,33.10
2023-04-07T08:51:51.056Z,33.12
2023-04-07T08:54:23.972Z,33.11
2023-04-07T08:56:55.109Z,33.12
2023-04-07T08:59:29.090Z,33.15
2023-04-07T09:01:59.714Z,33.12
2023-04-07T09:04:30.193Z,33.12
2023-04-07T09:07:00.488Z,33.10
2023-04-07T09:09:30.800Z,33.09
2023-04-07T09:12:01.254Z,33.13
2023-04-07T09:14:31.503Z,33.13
2023-04-07T09:17:02.769Z,33.12
2023-04-07T09:19:33.340Z,33.16
2023-04-07T09:22:03.566Z,33.15
2023-04-07T09:24:36.814Z,33.14
2023-04-07T09:27:21.746Z,33.14
2023-04-07T09:29:51.985Z,33.15
2023-04-07T09:32:49.828Z,33.16
2023-04-07T09:35:20.076Z,33.14
2023-04-07T09:38:11.031Z,33.16
2023-04-07T09:40:41.320Z,33.15
2023-04-07T09:43:21.581Z,33.14
2023-04-07T09:45:51.854Z,33.15
2023-04-07T09:48:24.228Z,33.17
2023-04-07T09:50:54.477Z,33.14
2023-04-07T09:53:44.271Z,33.15
2023-04-07T09:56:14.632Z,33.16
2023-04-07T09:58:47.726Z,33.18
2023-04-07T10:01:19.891Z,33.16
2023-04-07T10:03:53.113Z,33.17
2023-04-07T10:06:24.096Z,33.16
2023-04-07T10:08:54.739Z,33.16
2023-04-07T10:11:25.017Z,33.17
2023-04-07T10:13:56.101Z,33.19
2023-04-07T10:16:27.364Z,33.18
2023-04-07T10:18:58.710Z,33.20
2023-04-07T10:21:31.248Z,33.20
2023-04-07T10:24:25.544Z,33.19
2023-04-07T10:27:06.722Z,33.18
2023-04-07T10:29:42.307Z,33.20
2023-04-07T10:32:13.509Z,33.18
2023-04-07T10:34:53.140Z,33.17
2023-04-07T10:37:24.841Z,33.17
2023-04-07T10:40:23.995Z,33.18
2023-04-07T10:42:54.339Z,33.17
2023-04-07T10:45:54.652Z,33.17
2023-04-07T10:48:25.698Z,33.15
2023-04-07T10:51:17.542Z,33.18
2023-04-07T10:54:26.280Z,33.17
2023-04-07T10:57:06.842Z,33.17
2023-04-07T10:59:37.262Z,33.17
2023-04-07T11:02:16.910Z,33.18
2023-04-07T11:04:49.106Z,33.17
2023-04-07T11:07:22.232Z,33.16
2023-04-07T11:09:52.430Z,33.17
2023-04-07T11:12:26.982Z,33.16
2023-04-07T11:14:57.138Z,33.16
2023-04-07T11:17:27.427Z,33.15
2023-04-07T11:19:58.532Z,33.15
2023-04-07T11:22:30.550Z,33.14
2023-04-07T11:25:01.047Z,33.13
2023-04-07T11:27:32.490Z,33.12
2023-04-07T11:30:03.235Z,33.14
2023-04-07T11:32:33.917Z,33.11
2023-04-07T11:35:04.266Z,33.12
2023-04-07T11:37:35.089Z,33.11
2023-04-07T11:40:05.625Z,33.10
2023-04-07T11:42:40.836Z,33.11
2023-04-07T11:45:22.994Z,33.10
2023-04-07T11:47:53.376Z,33.09
2023-04-07T11:50:44.251Z,33.09
2023-04-07T11:53:14.669Z,33.07
2023-04-07T11:55:44.821Z,33.07
2023-04-07T11:58:15.254Z,33.06
2023-04-07T12:00:59.570Z,33.05
2023-04-07T12:03:30.012Z,33.03
2023-04-07T12:06:00.595Z,33.02
2023-04-07T12:08:45.040Z,33.03
2023-04-07T12:11:15.610Z,32.99
2023-04-07T12:13:45.849Z,32.99
2023-04-07T12:16:16.313Z,32.98
2023-04-07T12:18:46.602Z,32.96
2023-04-07T12:21:17.059Z,32.95
2023-04-07T12:23:48.790Z,32.96
2023-04-07T12:26:20.567Z,32.96
2023-04-07T12:28:51.966Z,32.94
2023-04-07T12:31:22.173Z,32.97
2023-04-07T12:33:52.483Z,32.93
2023-04-07T12:36:23.443Z,32.92
2023-04-07T12:38:53.516Z,32.92
2023-04-07T12:41:23.578Z,32.93
2023-04-07T12:43:53.982Z,32.93
2023-04-07T12:46:24.485Z,32.90
2023-04-07T12:48:54.765Z,32.90
2023-04-07T12:51:25.064Z,32.88
2023-04-07T12:53:56.492Z,32.89
2023-04-07T12:56:26.643Z,32.87
2023-04-07T12:58:57.048Z,32.88
2023-04-07T13:01:27.402Z,32.87
2023-04-07T13:03:58.753Z,32.87
2023-04-07T13:06:29.099Z,32.88
2023-04-07T13:08:59.337Z,32.87
2023-04-07T13:11:29.680Z,32.88
2023-04-07T13:14:01.278Z,32.85
2023-04-07T13:16:31.929Z,32.85
2023-04-07T13:19:05.360Z,32.85
2023-04-07T13:21:46.665Z,32.86
2023-04-07T13:24:17.971Z,32.87
2023-04-07T13:26:48.034Z,32.87
2023-04-07T13:29:19.371Z,32.84
2023-04-07T13:31:49.425Z,32.88
2023-04-07T13:34:19.545Z,32.85
2023-04-07T13:36:49.761Z,32.86
2023-04-07T13:39:19.951Z,32.84
2023-04-07T13:41:50.178Z,32.87
2023-04-07T13:44:21.195Z,32.89
2023-04-07T13:46:51.347Z,32.87
2023-04-07T13:49:22.059Z,32.82
2023-04-07T13:51:52.638Z,32.84
2023-04-07T13:54:23.031Z,32.75
2023-04-07T13:56:53.844Z,32.77
2023-04-07T13:59:25.201Z,32.73
2023-04-07T14:01:55.136Z,32.69
2023-04-07T14:04:25.371Z,32.72
2023-04-07T14:06:56.389Z,32.77
2023-04-07T14:09:26.576Z,32.72
2023-04-07T14:11:56.735Z,32.79
2023-04-07T14:14:27.263Z,32.75
2023-04-07T14:19:07.094Z,32.95
2023-04-07T14:21:37.255Z,32.87
2023-04-07T14:24:07.316Z,32.88
2023-04-07T14:26:37.412Z,32.90
2023-04-07T14:29:07.422Z,32.89
2023-04-07T14:31:37.779Z,32.93
2023-04-07T14:34:09.672Z,32.83
2023-04-07T14:36:40.066Z,32.85
2023-04-07T14:39:11.220Z,32.78
2023-04-07T14:41:41.433Z,32.78
2023-04-07T14:44:11.643Z,32.78
2023-04-07T14:46:41.779Z,32.80
2023-04-07T14:49:12.706Z,32.77
2023-04-07T14:51:42.974Z,32.88
2023-04-07T14:54:13.088Z,32.78
2023-04-07T14:56:43.681Z,32.73
2023-04-07T14:59:13.881Z,32.75
2023-04-07T15:01:44.225Z,32.77
2023-04-07T15:04:14.744Z,32.73
2023-04-07T15:06:47.298Z,32.75
2023-04-07T15:09:17.887Z,32.75
2023-04-07T15:11:51.068Z,32.87
2023-04-07T15:14:21.667Z,33.03
2023-04-07T15:16:52.912Z,32.96
2023-04-07T15:19:22.875Z,32.93
